sensor_id;sensor_type;location;lat;lon;timestamp;temperature;humidity
7214;DHT22;3648;50.614;13.830;2023-08-24T00:02:08;19.30;99.90
7214;DHT22;3648;50.614;13.830;2023-08-24T00:04:36;19.20;99.90
7214;DHT22;3648;50.614;13.830;2023-08-24T00:07:04;19.30;99.90
7214;DHT22;3648;50.614;13.830;2023-08-24T00:09:31;19.20;99.90
7214;DHT22;3648;50.614;13.830;2023-08-24T00:12:00;19.20;99.90
7214;DHT22;3648;50.614;13.830;2023-08-24T00:14:27;19.20;99.90
7214;DHT22;3648;50.614;13.830;2023-08-24T00:16:54;19.20;99.90
7214;DHT22;3648;50.614;13.830;2023-08-24T00:19:22;19.10;99.90
7214;DHT22;3648;50.614;13.830;2023-08-24T00:21:49;19.10;99.90
7214;DHT22;3648;50.614;13.830;2023-08-24T00:24:16;19.20;99.90
7214;DHT22;3648;50.614;13.830;2023-08-24T00:26:44;19.20;99.90
7214;DHT22;3648;50.614;13.830;2023-08-24T00:29:13;19.20;99.90
7214;DHT22;3648;50.614;13.830;2023-08-24T00:31:40;19.20;99.90
7214;DHT22;3648;50.614;13.830;2023-08-24T00:34:07;19.10;99.90
7214;DHT22;3648;50.614;13.830;2023-08-24T00:36:35;19.10;99.90
7214;DHT22;3648;50.614;13.830;2023-08-24T00:39:03;19.10;99.90
7214;DHT22;3648;50.614;13.830;2023-08-24T00:41:30;19.10;99.90
7214;DHT22;3648;50.614;13.830;2023-08-24T00:43:58;19.10;99.90
7214;DHT22;3648;50.614;13.830;2023-08-24T00:46:27;19.10;99.90
7214;DHT22;3648;50.614;13.830;2023-08-24T00:48:54;19.10;99.90
7214;DHT22;3648;50.614;13.830;2023-08-24T00:51:24;19.00;99.90
7214;DHT22;3648;50.614;13.830;2023-08-24T00:53:51;19.00;99.90
7214;DHT22;3648;50.614;13.830;2023-08-24T00:56:19;18.90;99.90
7214;DHT22;3648;50.614;13.830;2023-08-24T00:58:50;18.90;99.90
7214;DHT22;3648;50.614;13.830;2023-08-24T01:01:18;18.90;99.90
7214;DHT22;3648;50.614;13.830;2023-08-24T01:03:47;18.80;99.90
7214;DHT22;3648;50.614;13.830;2023-08-24T01:06:14;18.80;99.90
7214;DHT22;3648;50.614;13.830;2023-08-24T01:08:42;18.60;99.90
7214;DHT22;3648;50.614;13.830;2023-08-24T01:11:14;18.50;99.90
7214;DHT22;3648;50.614;13.830;2023-08-24T01:13:51;18.50;99.90
7214;DHT22;3648;50.614;13.830;2023-08-24T01:16:26;18.50;99.90
7214;DHT22;3648;50.614;13.830;2023-08-24T01:18:57;18.60;99.90
7214;DHT22;3648;50.614;13.830;2023-08-24T01:21:26;18.50;99.90
7214;DHT22;3648;50.614;13.830;2023-08-24T01:24:00;18.50;99.90
7214;DHT22;3648;50.614;13.830;2023-08-24T01:26:32;18.50;99.90
7214;DHT22;3648;50.614;13.830;2023-08-24T01:29:01;18.50;99.90
7214;DHT22;3648;50.614;13.830;2023-08-24T01:31:30;18.50;99.90
7214;DHT22;3648;50.614;13.830;2023-08-24T01:33:58;18.40;99.90
7214;DHT22;3648;50.614;13.830;2023-08-24T01:36:25;18.40;99.90
7214;DHT22;3648;50.614;13.830;2023-08-24T01:38:58;18.30;99.90
7214;DHT22;3648;50.614;13.830;2023-08-24T01:41:36;18.30;99.90
7214;DHT22;3648;50.614;13.830;2023-08-24T01:44:06;18.40;99.90
7214;DHT22;3648;50.614;13.830;2023-08-24T01:46:36;18.30;99.90
7214;DHT22;3648;50.614;13.830;2023-08-24T01:49:05;18.40;99.90
7214;DHT22;3648;50.614;13.830;2023-08-24T01:51:34;18.40;99.90
7214;DHT22;3648;50.614;13.830;2023-08-24T01:54:02;18.40;99.90
7214;DHT22;3648;50.614;13.830;2023-08-24T01:56:29;18.30;99.90
7214;DHT22;3648;50.614;13.830;2023-08-24T01:58:58;18.40;99.90
7214;DHT22;3648;50.614;13.830;2023-08-24T02:01:25;18.30;99.90
7214;DHT22;3648;50.614;13.830;2023-08-24T02:03:52;18.30;99.90
7214;DHT22;3648;50.614;13.830;2023-08-24T02:06:20;18.20;99.90
7214;DHT22;3648;50.614;13.830;2023-08-24T02:08:47;18.20;99.90
7214;DHT22;3648;50.614;13.830;2023-08-24T02:11:15;18.20;99.90
7214;DHT22;3648;50.614;13.830;2023-08-24T02:13:42;18.10;99.90
7214;DHT22;3648;50.614;13.830;2023-08-24T02:16:11;18.10;99.90
7214;DHT22;3648;50.614;13.830;2023-08-24T02:18:39;18.20;99.90
7214;DHT22;3648;50.614;13.830;2023-08-24T02:21:09;18.10;99.90
7214;DHT22;3648;50.614;13.830;2023-08-24T02:23:37;18.10;99.90
7214;DHT22;3648;50.614;13.830;2023-08-24T02:26:05;18.10;99.90
7214;DHT22;3648;50.614;13.830;2023-08-24T02:28:32;18.20;99.90
7214;DHT22;3648;50.614;13.830;2023-08-24T02:31:03;18.20;99.90
7214;DHT22;3648;50.614;13.830;2023-08-24T02:33:32;18.20;99.90
7214;DHT22;3648;50.614;13.830;2023-08-24T02:35:59;18.10;99.90
7214;DHT22;3648;50.614;13.830;2023-08-24T02:38:27;18.10;99.90
7214;DHT22;3648;50.614;13.830;2023-08-24T02:41:01;18.10;99.90
7214;DHT22;3648;50.614;13.830;2023-08-24T02:43:29;18.10;99.90
7214;DHT22;3648;50.614;13.830;2023-08-24T02:46:00;18.00;99.90
7214;DHT22;3648;50.614;13.830;2023-08-24T02:48:29;18.00;99.90
7214;DHT22;3648;50.614;13.830;2023-08-24T02:50:59;18.00;99.90
7214;DHT22;3648;50.614;13.830;2023-08-24T02:53:27;18.00;99.90
7214;DHT22;3648;50.614;13.830;2023-08-24T02:55:54;17.70;99.90
7214;DHT22;3648;50.614;13.830;2023-08-24T02:58:22;17.60;99.90
7214;DHT22;3648;50.614;13.830;2023-08-24T03:00:49;17.40;99.90
7214;DHT22;3648;50.614;13.830;2023-08-24T03:03:17;17.20;99.90
7214;DHT22;3648;50.614;13.830;2023-08-24T03:05:55;17.20;99.90
7214;DHT22;3648;50.614;13.830;2023-08-24T03:08:25;17.10;99.90
7214;DHT22;3648;50.614;13.830;2023-08-24T03:10:53;17.20;99.90
7214;DHT22;3648;50.614;13.830;2023-08-24T03:13:20;17.30;99.90
7214;DHT22;3648;50.614;13.830;2023-08-24T03:15:48;17.20;99.90
7214;DHT22;3648;50.614;13.830;2023-08-24T03:18:16;17.30;99.90
7214;DHT22;3648;50.614;13.830;2023-08-24T03:20:44;17.30;99.90
7214;DHT22;3648;50.614;13.830;2023-08-24T03:23:11;17.20;99.90
7214;DHT22;3648;50.614;13.830;2023-08-24T03:25:41;17.20;99.90
7214;DHT22;3648;50.614;13.830;2023-08-24T03:28:09;17.20;99.90
7214;DHT22;3648;50.614;13.830;2023-08-24T03:30:38;17.20;99.90
7214;DHT22;3648;50.614;13.830;2023-08-24T03:33:05;17.20;99.90
7214;DHT22;3648;50.614;13.830;2023-08-24T03:35:33;17.20;99.90
7214;DHT22;3648;50.614;13.830;2023-08-24T03:38:01;17.20;99.90
7214;DHT22;3648;50.614;13.830;2023-08-24T03:40:30;17.10;99.90
7214;DHT22;3648;50.614;13.830;2023-08-24T03:42:58;17.10;99.90
7214;DHT22;3648;50.614;13.830;2023-08-24T03:45:26;17.20;99.90
7214;DHT22;3648;50.614;13.830;2023-08-24T03:47:54;17.10;99.90
7214;DHT22;3648;50.614;13.830;2023-08-24T03:50:21;17.10;99.90
7214;DHT22;3648;50.614;13.830;2023-08-24T03:52:50;17.20;99.90
7214;DHT22;3648;50.614;13.830;2023-08-24T03:55:17;17.20;99.90
7214;DHT22;3648;50.614;13.830;2023-08-24T03:57:45;17.20;99.90
7214;DHT22;3648;50.614;13.830;2023-08-24T04:00:14;17.20;99.90
7214;DHT22;3648;50.614;13.830;2023-08-24T04:02:43;17.20;99.90
7214;DHT22;3648;50.614;13.830;2023-08-24T04:05:10;17.20;99.90
7214;DHT22;3648;50.614;13.830;2023-08-24T04:07:38;17.30;99.90
7214;DHT22;3648;50.614;13.830;2023-08-24T04:10:07;17.30;99.90
7214;DHT22;3648;50.614;13.830;2023-08-24T04:12:34;17.30;99.90
7214;DHT22;3648;50.614;13.830;2023-08-24T04:15:01;17.30;99.90
7214;DHT22;3648;50.614;13.830;2023-08-24T04:17:30;17.40;99.90
7214;DHT22;3648;50.614;13.830;2023-08-24T04:19:57;17.40;99.90
7214;DHT22;3648;50.614;13.830;2023-08-24T04:22:24;17.40;99.90
7214;DHT22;3648;50.614;13.830;2023-08-24T04:24:51;17.30;99.90
7214;DHT22;3648;50.614;13.830;2023-08-24T04:27:18;17.30;99.90
7214;DHT22;3648;50.614;13.830;2023-08-24T04:29:45;17.30;99.90
7214;DHT22;3648;50.614;13.830;2023-08-24T04:32:12;17.40;99.90
7214;DHT22;3648;50.614;13.830;2023-08-24T04:34:40;17.40;99.90
7214;DHT22;3648;50.614;13.830;2023-08-24T04:37:07;17.30;99.90
7214;DHT22;3648;50.614;13.830;2023-08-24T04:39:34;17.30;99.90
7214;DHT22;3648;50.614;13.830;2023-08-24T04:42:01;17.20;99.90
7214;DHT22;3648;50.614;13.830;2023-08-24T04:44:29;17.20;99.90
7214;DHT22;3648;50.614;13.830;2023-08-24T04:46:56;17.10;99.90
7214;DHT22;3648;50.614;13.830;2023-08-24T04:49:23;17.10;99.90
7214;DHT22;3648;50.614;13.830;2023-08-24T04:51:51;17.00;99.90
7214;DHT22;3648;50.614;13.830;2023-08-24T04:54:18;17.10;99.90
7214;DHT22;3648;50.614;13.830;2023-08-24T04:56:45;17.20;99.90
7214;DHT22;3648;50.614;13.830;2023-08-24T04:59:12;17.20;99.90
7214;DHT22;3648;50.614;13.830;2023-08-24T05:01:39;17.20;99.90
7214;DHT22;3648;50.614;13.830;2023-08-24T05:04:06;17.30;99.90
7214;DHT22;3648;50.614;13.830;2023-08-24T05:06:33;17.30;99.90
7214;DHT22;3648;50.614;13.830;2023-08-24T05:09:02;17.20;99.90
7214;DHT22;3648;50.614;13.830;2023-08-24T05:11:29;17.30;99.90
7214;DHT22;3648;50.614;13.830;2023-08-24T05:13:56;17.40;99.90
7214;DHT22;3648;50.614;13.830;2023-08-24T05:16:23;17.40;99.90
7214;DHT22;3648;50.614;13.830;2023-08-24T05:18:50;17.40;99.90
7214;DHT22;3648;50.614;13.830;2023-08-24T05:21:17;17.50;99.90
7214;DHT22;3648;50.614;13.830;2023-08-24T05:23:44;17.50;99.90
7214;DHT22;3648;50.614;13.830;2023-08-24T05:26:14;17.50;99.90
7214;DHT22;3648;50.614;13.830;2023-08-24T05:28:47;17.60;99.90
7214;DHT22;3648;50.614;13.830;2023-08-24T05:31:14;17.60;99.90
7214;DHT22;3648;50.614;13.830;2023-08-24T05:33:41;17.60;99.90
7214;DHT22;3648;50.614;13.830;2023-08-24T05:36:08;17.60;99.90
7214;DHT22;3648;50.614;13.830;2023-08-24T05:38:35;17.70;99.90
7214;DHT22;3648;50.614;13.830;2023-08-24T05:41:02;17.70;99.90
7214;DHT22;3648;50.614;13.830;2023-08-24T05:43:31;17.80;99.90
7214;DHT22;3648;50.614;13.830;2023-08-24T05:45:58;17.80;99.90
7214;DHT22;3648;50.614;13.830;2023-08-24T05:48:25;17.80;99.90
7214;DHT22;3648;50.614;13.830;2023-08-24T05:50:52;17.80;99.90
7214;DHT22;3648;50.614;13.830;2023-08-24T05:53:19;17.80;99.90
7214;DHT22;3648;50.614;13.830;2023-08-24T05:55:46;17.90;99.90
7214;DHT22;3648;50.614;13.830;2023-08-24T05:58:13;18.00;99.90
7214;DHT22;3648;50.614;13.830;2023-08-24T06:00:41;18.10;99.90
7214;DHT22;3648;50.614;13.830;2023-08-24T06:03:08;18.10;99.90
7214;DHT22;3648;50.614;13.830;2023-08-24T06:05:35;18.10;99.90
7214;DHT22;3648;50.614;13.830;2023-08-24T06:08:04;18.20;99.90
7214;DHT22;3648;50.614;13.830;2023-08-24T06:10:31;18.20;99.90
7214;DHT22;3648;50.614;13.830;2023-08-24T06:12:59;18.30;99.90
7214;DHT22;3648;50.614;13.830;2023-08-24T06:15:27;18.30;99.90
7214;DHT22;3648;50.614;13.830;2023-08-24T06:17:55;18.40;99.90
7214;DHT22;3648;50.614;13.830;2023-08-24T06:20:24;18.50;99.90
7214;DHT22;3648;50.614;13.830;2023-08-24T06:22:52;18.50;99.90
7214;DHT22;3648;50.614;13.830;2023-08-24T06:25:21;18.60;99.90
7214;DHT22;3648;50.614;13.830;2023-08-24T06:27:48;18.70;99.90
7214;DHT22;3648;50.614;13.830;2023-08-24T06:30:15;18.70;99.90
7214;DHT22;3648;50.614;13.830;2023-08-24T06:32:42;18.90;99.90
7214;DHT22;3648;50.614;13.830;2023-08-24T06:35:11;18.90;99.90
7214;DHT22;3648;50.614;13.830;2023-08-24T06:37:40;19.10;99.90
7214;DHT22;3648;50.614;13.830;2023-08-24T06:40:09;19.10;99.90
7214;DHT22;3648;50.614;13.830;2023-08-24T06:42:36;19.20;99.90
7214;DHT22;3648;50.614;13.830;2023-08-24T06:45:03;19.20;99.90
7214;DHT22;3648;50.614;13.830;2023-08-24T06:47:30;19.30;99.90
7214;DHT22;3648;50.614;13.830;2023-08-24T06:49:57;19.40;99.90
7214;DHT22;3648;50.614;13.830;2023-08-24T06:52:25;19.50;99.90
7214;DHT22;3648;50.614;13.830;2023-08-24T06:54:52;19.50;99.90
7214;DHT22;3648;50.614;13.830;2023-08-24T06:57:21;19.50;99.90
7214;DHT22;3648;50.614;13.830;2023-08-24T06:59:49;19.60;99.90
7214;DHT22;3648;50.614;13.830;2023-08-24T07:02:16;19.60;99.90
7214;DHT22;3648;50.614;13.830;2023-08-24T07:04:44;19.60;99.90
7214;DHT22;3648;50.614;13.830;2023-08-24T07:07:11;19.70;99.90
7214;DHT22;3648;50.614;13.830;2023-08-24T07:09:39;19.70;99.90
7214;DHT22;3648;50.614;13.830;2023-08-24T07:12:07;19.80;99.90
7214;DHT22;3648;50.614;13.830;2023-08-24T07:14:36;19.90;99.90
7214;DHT22;3648;50.614;13.830;2023-08-24T07:17:03;20.00;99.90
7214;DHT22;3648;50.614;13.830;2023-08-24T07:19:30;20.10;99.90
7214;DHT22;3648;50.614;13.830;2023-08-24T07:21:58;20.10;99.90
7214;DHT22;3648;50.614;13.830;2023-08-24T07:24:25;20.20;99.90
7214;DHT22;3648;50.614;13.830;2023-08-24T07:26:55;20.30;99.90
7214;DHT22;3648;50.614;13.830;2023-08-24T07:29:24;20.40;99.90
7214;DHT22;3648;50.614;13.830;2023-08-24T07:31:51;20.50;99.90
7214;DHT22;3648;50.614;13.830;2023-08-24T07:34:18;20.50;99.90
7214;DHT22;3648;50.614;13.830;2023-08-24T07:36:45;20.60;99.90
7214;DHT22;3648;50.614;13.830;2023-08-24T07:39:14;20.70;99.90
7214;DHT22;3648;50.614;13.830;2023-08-24T07:41:41;20.70;99.90
7214;DHT22;3648;50.614;13.830;2023-08-24T07:44:09;20.80;99.90
7214;DHT22;3648;50.614;13.830;2023-08-24T07:46:38;21.00;99.90
7214;DHT22;3648;50.614;13.830;2023-08-24T07:49:06;21.00;99.90
7214;DHT22;3648;50.614;13.830;2023-08-24T07:51:33;21.20;99.90
7214;DHT22;3648;50.614;13.830;2023-08-24T07:54:00;21.30;99.90
7214;DHT22;3648;50.614;13.830;2023-08-24T07:56:29;21.30;99.90
7214;DHT22;3648;50.614;13.830;2023-08-24T07:58:57;21.40;99.90
7214;DHT22;3648;50.614;13.830;2023-08-24T08:01:25;21.50;99.90
7214;DHT22;3648;50.614;13.830;2023-08-24T08:03:53;21.60;99.90
7214;DHT22;3648;50.614;13.830;2023-08-24T08:06:20;21.70;99.90
7214;DHT22;3648;50.614;13.830;2023-08-24T08:08:47;21.90;99.90
7214;DHT22;3648;50.614;13.830;2023-08-24T08:11:17;21.90;99.90
7214;DHT22;3648;50.614;13.830;2023-08-24T08:13:44;22.00;99.90
7214;DHT22;3648;50.614;13.830;2023-08-24T08:16:11;22.10;99.90
7214;DHT22;3648;50.614;13.830;2023-08-24T08:18:40;22.30;99.90
7214;DHT22;3648;50.614;13.830;2023-08-24T08:21:14;22.40;99.90
7214;DHT22;3648;50.614;13.830;2023-08-24T08:23:43;22.50;99.90
7214;DHT22;3648;50.614;13.830;2023-08-24T08:26:13;22.60;99.90
7214;DHT22;3648;50.614;13.830;2023-08-24T08:28:43;22.80;99.90
7214;DHT22;3648;50.614;13.830;2023-08-24T08:31:10;22.90;99.90
7214;DHT22;3648;50.614;13.830;2023-08-24T08:33:37;23.00;99.90
7214;DHT22;3648;50.614;13.830;2023-08-24T08:36:08;23.10;99.90
7214;DHT22;3648;50.614;13.830;2023-08-24T08:38:35;23.20;99.90
7214;DHT22;3648;50.614;13.830;2023-08-24T08:41:04;23.30;99.90
7214;DHT22;3648;50.614;13.830;2023-08-24T08:43:31;23.50;99.90
7214;DHT22;3648;50.614;13.830;2023-08-24T08:45:59;23.50;99.90
7214;DHT22;3648;50.614;13.830;2023-08-24T08:48:28;23.70;99.90
7214;DHT22;3648;50.614;13.830;2023-08-24T08:50:57;23.90;99.90
7214;DHT22;3648;50.614;13.830;2023-08-24T08:53:28;24.10;99.90
7214;DHT22;3648;50.614;13.830;2023-08-24T08:55:55;24.30;99.90
7214;DHT22;3648;50.614;13.830;2023-08-24T08:58:29;24.40;99.90
7214;DHT22;3648;50.614;13.830;2023-08-24T09:00:58;24.70;99.90
7214;DHT22;3648;50.614;13.830;2023-08-24T09:03:29;24.90;99.90
7214;DHT22;3648;50.614;13.830;2023-08-24T09:05:57;24.90;99.90
7214;DHT22;3648;50.614;13.830;2023-08-24T09:08:25;25.10;99.90
7214;DHT22;3648;50.614;13.830;2023-08-24T09:10:55;25.30;99.90
7214;DHT22;3648;50.614;13.830;2023-08-24T09:13:22;25.20;99.90
7214;DHT22;3648;50.614;13.830;2023-08-24T09:15:51;25.30;99.90
7214;DHT22;3648;50.614;13.830;2023-08-24T09:18:19;25.60;99.90
7214;DHT22;3648;50.614;13.830;2023-08-24T09:20:47;25.60;99.90
7214;DHT22;3648;50.614;13.830;2023-08-24T09:23:18;25.90;99.90
7214;DHT22;3648;50.614;13.830;2023-08-24T09:25:46;26.10;99.90
7214;DHT22;3648;50.614;13.830;2023-08-24T09:28:22;26.20;99.90
7214;DHT22;3648;50.614;13.830;2023-08-24T09:30:52;26.40;99.90
7214;DHT22;3648;50.614;13.830;2023-08-24T09:33:20;26.60;99.90
7214;DHT22;3648;50.614;13.830;2023-08-24T09:35:53;26.70;99.90
7214;DHT22;3648;50.614;13.830;2023-08-24T09:38:22;26.80;99.90
7214;DHT22;3648;50.614;13.830;2023-08-24T09:40:51;26.90;99.90
7214;DHT22;3648;50.614;13.830;2023-08-24T09:43:20;27.10;99.90
7214;DHT22;3648;50.614;13.830;2023-08-24T09:45:48;27.20;99.90
7214;DHT22;3648;50.614;13.830;2023-08-24T09:48:16;27.30;99.90
7214;DHT22;3648;50.614;13.830;2023-08-24T09:50:44;27.40;99.90
7214;DHT22;3648;50.614;13.830;2023-08-24T09:53:15;27.40;99.90
7214;DHT22;3648;50.614;13.830;2023-08-24T09:55:44;27.40;99.90
7214;DHT22;3648;50.614;13.830;2023-08-24T09:58:15;27.50;99.90
7214;DHT22;3648;50.614;13.830;2023-08-24T10:00:45;27.70;99.90
7214;DHT22;3648;50.614;13.830;2023-08-24T10:03:16;27.70;99.90
7214;DHT22;3648;50.614;13.830;2023-08-24T10:05:47;27.70;99.90
7214;DHT22;3648;50.614;13.830;2023-08-24T10:08:17;27.30;99.90
7214;DHT22;3648;50.614;13.830;2023-08-24T10:10:46;27.30;99.90
7214;DHT22;3648;50.614;13.830;2023-08-24T10:13:20;27.40;99.90
7214;DHT22;3648;50.614;13.830;2023-08-24T10:15:50;27.70;99.90
7214;DHT22;3648;50.614;13.830;2023-08-24T10:18:18;27.90;99.90
7214;DHT22;3648;50.614;13.830;2023-08-24T10:20:47;27.80;99.90
7214;DHT22;3648;50.614;13.830;2023-08-24T10:23:15;27.80;99.90
7214;DHT22;3648;50.614;13.830;2023-08-24T10:25:42;27.90;99.90
7214;DHT22;3648;50.614;13.830;2023-08-24T10:28:11;28.00;99.90
7214;DHT22;3648;50.614;13.830;2023-08-24T10:30:39;27.90;99.90
7214;DHT22;3648;50.614;13.830;2023-08-24T10:33:11;27.80;99.90
7214;DHT22;3648;50.614;13.830;2023-08-24T10:35:39;27.80;99.90
7214;DHT22;3648;50.614;13.830;2023-08-24T10:38:06;27.90;99.90
7214;DHT22;3648;50.614;13.830;2023-08-24T10:40:34;27.80;99.90
7214;DHT22;3648;50.614;13.830;2023-08-24T10:43:05;27.90;99.90
7214;DHT22;3648;50.614;13.830;2023-08-24T10:45:55;27.80;99.90
7214;DHT22;3648;50.614;13.830;2023-08-24T10:48:26;28.00;99.90
7214;DHT22;3648;50.614;13.830;2023-08-24T10:51:17;28.00;99.90
7214;DHT22;3648;50.614;13.830;2023-08-24T10:53:47;28.00;99.90
7214;DHT22;3648;50.614;13.830;2023-08-24T10:56:16;28.10;99.90
7214;DHT22;3648;50.614;13.830;2023-08-24T10:58:44;28.10;99.90
7214;DHT22;3648;50.614;13.830;2023-08-24T11:01:15;28.20;99.90
7214;DHT22;3648;50.614;13.830;2023-08-24T11:03:51;28.30;99.90
7214;DHT22;3648;50.614;13.830;2023-08-24T11:06:19;28.40;99.90
7214;DHT22;3648;50.614;13.830;2023-08-24T11:08:47;28.40;99.90
7214;DHT22;3648;50.614;13.830;2023-08-24T11:11:21;28.50;99.90
7214;DHT22;3648;50.614;13.830;2023-08-24T11:14:14;28.70;99.90
7214;DHT22;3648;50.614;13.830;2023-08-24T11:16:43;28.70;99.90
7214;DHT22;3648;50.614;13.830;2023-08-24T11:19:13;28.90;99.90
7214;DHT22;3648;50.614;13.830;2023-08-24T11:21:42;28.80;99.90
7214;DHT22;3648;50.614;13.830;2023-08-24T11:24:10;29.00;99.90
7214;DHT22;3648;50.614;13.830;2023-08-24T11:26:42;29.00;99.90
7214;DHT22;3648;50.614;13.830;2023-08-24T11:29:10;28.80;99.90
7214;DHT22;3648;50.614;13.830;2023-08-24T11:31:37;28.80;99.90
7214;DHT22;3648;50.614;13.830;2023-08-24T11:34:05;28.60;99.90
7214;DHT22;3648;50.614;13.830;2023-08-24T11:36:43;28.50;99.90
7214;DHT22;3648;50.614;13.830;2023-08-24T11:39:15;28.50;99.90
7214;DHT22;3648;50.614;13.830;2023-08-24T11:41:45;28.40;99.90
7214;DHT22;3648;50.614;13.830;2023-08-24T11:44:14;28.30;99.90
7214;DHT22;3648;50.614;13.830;2023-08-24T11:46:41;28.30;99.90
7214;DHT22;3648;50.614;13.830;2023-08-24T11:49:08;28.20;99.90
7214;DHT22;3648;50.614;13.830;2023-08-24T11:51:36;28.20;99.90
7214;DHT22;3648;50.614;13.830;2023-08-24T11:54:06;28.30;99.90
7214;DHT22;3648;50.614;13.830;2023-08-24T11:56:39;28.20;99.90
7214;DHT22;3648;50.614;13.830;2023-08-24T11:59:11;28.00;99.90
7214;DHT22;3648;50.614;13.830;2023-08-24T12:01:39;28.10;99.90
7214;DHT22;3648;50.614;13.830;2023-08-24T12:04:07;27.90;99.90
7214;DHT22;3648;50.614;13.830;2023-08-24T12:06:35;28.00;99.90
7214;DHT22;3648;50.614;13.830;2023-08-24T12:09:06;28.00;99.90
7214;DHT22;3648;50.614;13.830;2023-08-24T12:11:36;28.10;99.90
7214;DHT22;3648;50.614;13.830;2023-08-24T12:14:04;28.10;99.90
7214;DHT22;3648;50.614;13.830;2023-08-24T12:16:35;28.20;99.90
7214;DHT22;3648;50.614;13.830;2023-08-24T12:19:02;28.20;99.90
7214;DHT22;3648;50.614;13.830;2023-08-24T12:21:33;28.20;99.90
7214;DHT22;3648;50.614;13.830;2023-08-24T12:24:03;28.30;99.90
7214;DHT22;3648;50.614;13.830;2023-08-24T12:26:33;28.40;99.90
7214;DHT22;3648;50.614;13.830;2023-08-24T12:29:01;28.30;99.90
7214;DHT22;3648;50.614;13.830;2023-08-24T12:31:29;28.50;99.90
7214;DHT22;3648;50.614;13.830;2023-08-24T12:34:00;28.50;99.90
7214;DHT22;3648;50.614;13.830;2023-08-24T12:36:29;28.30;99.90
7214;DHT22;3648;50.614;13.830;2023-08-24T12:38:56;28.40;99.90
7214;DHT22;3648;50.614;13.830;2023-08-24T12:41:24;28.40;99.90
7214;DHT22;3648;50.614;13.830;2023-08-24T12:43:53;28.40;99.90
7214;DHT22;3648;50.614;13.830;2023-08-24T12:46:20;28.40;99.90
7214;DHT22;3648;50.614;13.830;2023-08-24T12:48:47;28.50;99.90
7214;DHT22;3648;50.614;13.830;2023-08-24T12:51:14;28.70;99.90
7214;DHT22;3648;50.614;13.830;2023-08-24T12:53:41;28.60;99.90
7214;DHT22;3648;50.614;13.830;2023-08-24T12:56:08;28.60;99.90
7214;DHT22;3648;50.614;13.830;2023-08-24T12:58:35;28.70;99.90
7214;DHT22;3648;50.614;13.830;2023-08-24T13:01:04;28.40;99.90
7214;DHT22;3648;50.614;13.830;2023-08-24T13:03:32;28.40;99.90
7214;DHT22;3648;50.614;13.830;2023-08-24T13:06:01;28.40;99.90
7214;DHT22;3648;50.614;13.830;2023-08-24T13:08:30;28.30;99.90
7214;DHT22;3648;50.614;13.830;2023-08-24T13:10:57;28.40;99.90
7214;DHT22;3648;50.614;13.830;2023-08-24T13:13:24;28.40;99.90
7214;DHT22;3648;50.614;13.830;2023-08-24T13:15:51;28.40;99.90
7214;DHT22;3648;50.614;13.830;2023-08-24T13:18:20;28.40;99.90
7214;DHT22;3648;50.614;13.830;2023-08-24T13:20:47;28.50;99.90
7214;DHT22;3648;50.614;13.830;2023-08-24T13:23:14;28.70;99.90
7214;DHT22;3648;50.614;13.830;2023-08-24T13:25:41;28.60;99.90
7214;DHT22;3648;50.614;13.830;2023-08-24T13:28:08;28.80;99.90
7214;DHT22;3648;50.614;13.830;2023-08-24T13:30:36;29.00;99.90
7214;DHT22;3648;50.614;13.830;2023-08-24T13:33:03;29.00;99.90
7214;DHT22;3648;50.614;13.830;2023-08-24T13:35:32;29.20;99.90
7214;DHT22;3648;50.614;13.830;2023-08-24T13:38:00;29.20;99.90
7214;DHT22;3648;50.614;13.830;2023-08-24T13:40:27;29.30;99.90
7214;DHT22;3648;50.614;13.830;2023-08-24T13:42:54;29.40;99.90
7214;DHT22;3648;50.614;13.830;2023-08-24T13:45:21;29.40;99.90
7214;DHT22;3648;50.614;13.830;2023-08-24T13:47:48;29.40;99.90
7214;DHT22;3648;50.614;13.830;2023-08-24T13:50:15;29.40;99.90
7214;DHT22;3648;50.614;13.830;2023-08-24T13:52:43;29.20;99.90
7214;DHT22;3648;50.614;13.830;2023-08-24T13:55:10;29.20;99.90
7214;DHT22;3648;50.614;13.830;2023-08-24T13:57:38;29.10;99.90
7214;DHT22;3648;50.614;13.830;2023-08-24T14:00:06;29.20;99.90
7214;DHT22;3648;50.614;13.830;2023-08-24T14:02:34;29.30;99.90
7214;DHT22;3648;50.614;13.830;2023-08-24T14:05:01;29.10;99.90
7214;DHT22;3648;50.614;13.830;2023-08-24T14:07:29;29.20;99.90
7214;DHT22;3648;50.614;13.830;2023-08-24T14:09:58;29.10;99.90
7214;DHT22;3648;50.614;13.830;2023-08-24T14:12:25;29.10;99.90
7214;DHT22;3648;50.614;13.830;2023-08-24T14:14:52;29.10;99.90
7214;DHT22;3648;50.614;13.830;2023-08-24T14:17:19;29.20;99.90
7214;DHT22;3648;50.614;13.830;2023-08-24T14:19:46;29.00;99.90
7214;DHT22;3648;50.614;13.830;2023-08-24T14:22:14;29.20;99.90
7214;DHT22;3648;50.614;13.830;2023-08-24T14:24:41;29.30;99.90
7214;DHT22;3648;50.614;13.830;2023-08-24T14:27:09;29.40;99.90
7214;DHT22;3648;50.614;13.830;2023-08-24T14:29:37;29.50;99.90
7214;DHT22;3648;50.614;13.830;2023-08-24T14:32:04;29.50;99.90
7214;DHT22;3648;50.614;13.830;2023-08-24T14:34:31;29.60;99.90
7214;DHT22;3648;50.614;13.830;2023-08-24T14:36:58;29.50;99.90
7214;DHT22;3648;50.614;13.830;2023-08-24T14:39:25;29.40;99.90
7214;DHT22;3648;50.614;13.830;2023-08-24T14:41:52;29.60;99.90
7214;DHT22;3648;50.614;13.830;2023-08-24T14:44:21;29.70;99.90
7214;DHT22;3648;50.614;13.830;2023-08-24T14:46:48;29.80;99.90
7214;DHT22;3648;50.614;13.830;2023-08-24T14:49:15;29.70;99.90
7214;DHT22;3648;50.614;13.830;2023-08-24T14:51:44;29.60;99.90
7214;DHT22;3648;50.614;13.830;2023-08-24T14:54:11;29.60;99.90
7214;DHT22;3648;50.614;13.830;2023-08-24T14:56:40;29.60;99.90
7214;DHT22;3648;50.614;13.830;2023-08-24T14:59:07;29.70;99.90
7214;DHT22;3648;50.614;13.830;2023-08-24T15:01:35;29.70;99.90
7214;DHT22;3648;50.614;13.830;2023-08-24T15:04:02;29.70;99.90
7214;DHT22;3648;50.614;13.830;2023-08-24T15:06:29;29.50;99.90
7214;DHT22;3648;50.614;13.830;2023-08-24T15:08:56;29.40;99.90
7214;DHT22;3648;50.614;13.830;2023-08-24T15:11:24;29.40;99.90
7214;DHT22;3648;50.614;13.830;2023-08-24T15:13:53;29.50;99.90
7214;DHT22;3648;50.614;13.830;2023-08-24T15:16:20;29.50;99.90
7214;DHT22;3648;50.614;13.830;2023-08-24T15:18:49;29.60;99.90
7214;DHT22;3648;50.614;13.830;2023-08-24T15:21:16;29.60;99.90
7214;DHT22;3648;50.614;13.830;2023-08-24T15:23:43;29.60;99.90
7214;DHT22;3648;50.614;13.830;2023-08-24T15:26:10;29.60;99.90
7214;DHT22;3648;50.614;13.830;2023-08-24T15:29:06;29.60;99.90
7214;DHT22;3648;50.614;13.830;2023-08-24T15:31:25;29.70;99.90
7214;DHT22;3648;50.614;13.830;2023-08-24T15:33:53;29.70;99.90
7214;DHT22;3648;50.614;13.830;2023-08-24T15:36:20;29.50;99.90
7214;DHT22;3648;50.614;13.830;2023-08-24T15:38:47;29.40;99.90
7214;DHT22;3648;50.614;13.830;2023-08-24T15:41:14;29.50;99.90
7214;DHT22;3648;50.614;13.830;2023-08-24T15:43:41;29.40;99.90
7214;DHT22;3648;50.614;13.830;2023-08-24T15:46:08;29.50;99.90
7214;DHT22;3648;50.614;13.830;2023-08-24T15:48:35;29.60;99.90
7214;DHT22;3648;50.614;13.830;2023-08-24T15:51:04;29.60;99.90
7214;DHT22;3648;50.614;13.830;2023-08-24T15:53:32;29.50;99.90